KQWM/QWM METAR and TAF weather

Enter ICAO airport designator
Station Type Date Time Source
KQWM METAR 2022/11/26 08:55 UTC NOAA

KQWM 260855Z AUTO 36016KT 9999 BKN130 26/08 A3000 RMK AO2 SLP153 WND DATA ESTMD T02640082 58014


Station Type Date Time Source
KQWM Decoded METAR 2022/11/26 08:55 UTC NOAA

Station name not available
Nov 26, 2022 - 03:55 AM EST / 2022.11.26 0855 UTC
Wind: from the N (360 degrees) at 18 MPH (16 KT):0
Visibility: greater than 7 mile(s):0
Sky conditions: mostly cloudy
Temperature: 79.5 F (26.4 C)
Dew Point: 46.8 F (8.2 C)
Relative Humidity: 31%
Pressure (altimeter): 30 in. Hg (1015 hPa)
Pressure tendency: 0.04 inches (1.4 hPa) lower than three hours ago
ob: KQWM 260855Z AUTO 36016KT 9999 BKN130 26/08 A3000 RMK AO2 SLP153 WND DATA ESTMD T02640082 58014
cycle: 9

Station Type Date Time Source
KQWM TAF 2016/03/17 15:00 UTC NOAA

TAF KQWM 171500Z 1715/1821 28009KT 9000 HZ SKC QNH2995INS
TEMPO 1715/1717 27015G20KT
BECMG 1807/1808 29012G20KT 8000 HZ SKC QNH2998INS
BECMG 1814/1815 29009KT 9999 NSW SKC QNH3002INS TX26/1811Z TN13/1803Z

Example: see airport list